createdAt,value
2022-11-13T00:02:53.495Z,70.55
2022-11-13T00:05:53.690Z,70.16
2022-11-13T00:09:03.331Z,70.06
2022-11-13T00:12:10.306Z,69.43
2022-11-13T00:15:25.434Z,69.91
2022-11-13T00:18:26.884Z,69.88
2022-11-13T00:21:40.409Z,69.82
2022-11-13T00:24:40.719Z,69.83
2022-11-13T00:27:47.350Z,70.42
2022-11-13T00:30:54.313Z,70.15
2022-11-13T00:34:09.525Z,70.00
2022-11-13T00:37:22.398Z,70.14
2022-11-13T00:40:22.729Z,70.33
2022-11-13T00:43:30.460Z,70.01
2022-11-13T00:46:30.879Z,69.68
2022-11-13T00:49:37.403Z,68.77
2022-11-13T00:52:44.423Z,69.02
2022-11-13T00:55:53.311Z,68.80
2022-11-13T00:59:00.348Z,68.85
2022-11-13T01:02:01.600Z,69.13
2022-11-13T01:05:08.407Z,69.65
2022-11-13T01:08:16.413Z,69.54
2022-11-13T01:11:21.720Z,69.88
2022-11-13T01:14:28.346Z,70.22
2022-11-13T01:17:28.676Z,70.37
2022-11-13T01:20:36.417Z,69.82
2022-11-13T01:23:36.746Z,70.17
2022-11-13T01:26:43.346Z,70.18
2022-11-13T01:29:45.813Z,69.86
2022-11-13T01:32:52.336Z,69.69
2022-11-13T01:35:52.698Z,69.46
2022-11-13T01:39:01.329Z,69.76
2022-11-13T01:42:09.384Z,70.52
2022-11-13T01:45:47.568Z,69.35
2022-11-13T01:49:01.382Z,69.82
2022-11-13T01:52:10.985Z,70.19
2022-11-13T01:55:23.327Z,69.87
2022-11-13T01:58:23.964Z,70.39
2022-11-13T02:01:30.493Z,69.48
2022-11-13T02:04:38.424Z,69.23
2022-11-13T02:07:39.722Z,68.76
2022-11-13T02:10:46.343Z,67.91
2022-11-13T02:13:54.438Z,68.91
2022-11-13T02:17:08.298Z,69.03
2022-11-13T02:20:18.485Z,69.21
2022-11-13T02:24:03.279Z,69.36
2022-11-13T02:27:17.391Z,69.54
2022-11-13T02:30:28.240Z,68.59
2022-11-13T02:33:44.750Z,69.64
2022-11-13T02:36:52.485Z,69.32
2022-11-13T02:39:52.682Z,68.85
2022-11-13T02:42:59.402Z,67.22
2022-11-13T02:45:59.696Z,66.44
2022-11-13T02:49:07.376Z,66.35
2022-11-13T02:52:07.670Z,69.16
2022-11-13T02:55:15.299Z,68.06
2022-11-13T02:58:22.512Z,69.92
2022-11-13T03:01:30.361Z,69.27
2022-11-13T03:05:05.389Z,69.21
2022-11-13T03:07:57.563Z,66.89
2022-11-13T03:11:04.414Z,69.08
2022-11-13T03:14:18.238Z,67.96
2022-11-13T03:17:25.484Z,66.58
2022-11-13T03:20:25.671Z,65.04
2022-11-13T03:23:33.401Z,63.10
2022-11-13T03:26:33.659Z,62.91
2022-11-13T03:29:40.403Z,62.12
2022-11-13T03:32:40.704Z,59.64
2022-11-13T03:35:48.403Z,58.00
2022-11-13T03:38:49.679Z,58.49
2022-11-13T03:41:57.386Z,58.82
2022-11-13T03:45:04.385Z,55.14
2022-11-13T03:48:05.876Z,55.12
2022-11-13T03:51:12.430Z,48.73
2022-11-13T03:54:13.606Z,52.32
2022-11-13T03:57:21.376Z,46.36
2022-11-13T04:00:28.361Z,43.73
2022-11-13T04:03:35.383Z,46.45
2022-11-13T04:06:43.364Z,46.71
2022-11-13T04:09:44.714Z,46.87
2022-11-13T04:12:51.279Z,49.64
2022-11-13T04:16:05.251Z,45.63
2022-11-13T04:19:12.390Z,41.61
2022-11-13T04:22:13.676Z,42.68
2022-11-13T04:25:21.358Z,45.39
2022-11-13T04:28:21.724Z,41.78
2022-11-13T04:31:29.386Z,41.14
2022-11-13T04:34:29.678Z,39.35
2022-11-13T04:37:37.375Z,44.18
2022-11-13T04:40:44.300Z,39.37
2022-11-13T04:43:44.573Z,40.92
2022-11-13T04:46:51.313Z,40.33
2022-11-13T04:49:51.559Z,40.35
2022-11-13T04:52:59.307Z,39.30
2022-11-13T04:55:59.688Z,41.69
2022-11-13T04:59:07.382Z,41.51
2022-11-13T05:02:07.824Z,40.58
2022-11-13T05:05:14.356Z,38.46
2022-11-13T05:08:21.385Z,38.69
2022-11-13T05:11:22.813Z,38.58
2022-11-13T05:14:29.377Z,37.95
2022-11-13T05:17:36.364Z,38.57
2022-11-13T05:20:37.576Z,38.01
2022-11-13T05:23:45.381Z,39.16
2022-11-13T05:26:45.624Z,36.55
2022-11-13T05:29:52.375Z,36.10
2022-11-13T05:32:54.164Z,37.04
2022-11-13T05:35:55.373Z,36.13
2022-11-13T05:38:56.729Z,34.36
2022-11-13T05:42:03.299Z,36.83
2022-11-13T05:45:03.678Z,37.55
2022-11-13T05:48:10.268Z,35.63
2022-11-13T05:51:12.627Z,33.19
2022-11-13T05:54:20.392Z,35.34
2022-11-13T05:57:21.643Z,38.95
2022-11-13T06:00:29.376Z,37.40
2022-11-13T06:03:37.380Z,36.97
2022-11-13T06:06:37.801Z,37.71
2022-11-13T06:09:44.380Z,35.30
2022-11-13T06:12:44.527Z,35.24
2022-11-13T06:15:51.371Z,32.16
2022-11-13T06:19:02.367Z,31.75
2022-11-13T06:22:09.348Z,28.76
2022-11-13T06:25:17.379Z,28.49
2022-11-13T06:28:18.842Z,29.96
2022-11-13T06:31:33.390Z,31.50
2022-11-13T06:34:41.379Z,29.17
2022-11-13T06:37:41.536Z,29.28
2022-11-13T06:40:48.285Z,31.02
2022-11-13T06:43:51.979Z,30.15
2022-11-13T06:46:58.369Z,34.00
2022-11-13T06:50:05.275Z,31.48
2022-11-13T06:53:12.280Z,29.38
2022-11-13T06:56:20.359Z,31.72
2022-11-13T06:59:27.280Z,32.21
2022-11-13T07:02:27.555Z,30.27
2022-11-13T07:05:35.364Z,30.00
2022-11-13T07:08:44.380Z,30.94
2022-11-13T07:11:52.389Z,31.82
2022-11-13T07:15:07.371Z,31.29
2022-11-13T07:18:08.387Z,31.76
2022-11-13T07:21:26.368Z,31.78
2022-11-13T07:24:33.372Z,31.42
2022-11-13T07:27:41.258Z,29.99
2022-11-13T07:30:49.372Z,31.90
2022-11-13T07:33:57.374Z,32.90
2022-11-13T07:37:04.376Z,30.77
2022-11-13T07:40:11.297Z,32.09
2022-11-13T07:43:19.385Z,33.23
2022-11-13T07:46:26.376Z,32.18
2022-11-13T07:49:26.591Z,32.61
2022-11-13T07:52:34.298Z,32.03
2022-11-13T07:55:43.389Z,32.96
2022-11-13T07:58:51.458Z,29.63
2022-11-13T08:01:52.837Z,31.18
2022-11-13T08:05:00.293Z,30.11
2022-11-13T08:08:01.820Z,32.74
2022-11-13T08:11:08.295Z,31.17
2022-11-13T08:14:22.237Z,32.29
2022-11-13T08:17:29.291Z,31.29
2022-11-13T08:20:30.638Z,31.46
2022-11-13T08:23:37.317Z,30.79
2022-11-13T08:26:37.671Z,30.60
2022-11-13T08:29:45.278Z,30.23
2022-11-13T08:32:53.403Z,28.77
2022-11-13T08:35:55.558Z,28.97
2022-11-13T08:39:03.433Z,31.23
2022-11-13T08:42:04.973Z,30.60
2022-11-13T08:45:11.380Z,29.47
2022-11-13T08:48:19.304Z,28.56
2022-11-13T08:51:26.282Z,29.42
2022-11-13T08:54:33.398Z,30.15
2022-11-13T08:57:33.724Z,29.34
2022-11-13T09:00:41.311Z,28.75
2022-11-13T09:03:49.392Z,27.96
2022-11-13T09:06:56.414Z,28.60
2022-11-13T09:10:03.526Z,30.87
2022-11-13T09:13:13.388Z,29.39
2022-11-13T09:16:26.266Z,27.46
2022-11-13T09:19:34.319Z,29.11
2022-11-13T09:22:35.685Z,30.04
2022-11-13T09:25:45.260Z,27.64
2022-11-13T09:28:45.694Z,29.64
2022-11-13T09:31:52.364Z,28.68
2022-11-13T09:34:52.794Z,29.47
2022-11-13T09:38:00.380Z,29.08
2022-11-13T09:41:13.284Z,28.81
2022-11-13T09:44:42.384Z,30.30
2022-11-13T09:47:49.797Z,31.51
2022-11-13T09:50:57.295Z,30.99
2022-11-13T09:53:58.645Z,31.21
2022-11-13T09:57:10.380Z,31.30
2022-11-13T10:00:28.946Z,31.62
2022-11-13T10:04:08.882Z,31.81
2022-11-13T10:07:31.774Z,30.10
2022-11-13T10:10:55.574Z,32.26
2022-11-13T10:14:08.085Z,32.84
2022-11-13T10:17:39.901Z,32.24
2022-11-13T10:20:52.315Z,35.24
2022-11-13T10:23:58.449Z,35.04
2022-11-13T10:27:07.493Z,35.76
2022-11-13T10:30:17.223Z,35.78
2022-11-13T10:33:33.431Z,37.77
2022-11-13T10:36:51.564Z,38.12
2022-11-13T10:40:02.439Z,39.07
2022-11-13T10:43:19.233Z,41.61
2022-11-13T10:46:38.398Z,41.80
2022-11-13T10:49:39.938Z,40.87
2022-11-13T10:52:47.366Z,41.47
2022-11-13T10:55:58.371Z,42.22
2022-11-13T10:59:10.970Z,41.99
2022-11-13T11:02:28.280Z,43.91
2022-11-13T11:05:39.426Z,44.38
2022-11-13T11:08:47.357Z,46.12
2022-11-13T11:12:06.945Z,44.60
2022-11-13T11:15:31.666Z,44.33
2022-11-13T11:18:49.679Z,43.51
2022-11-13T11:22:03.343Z,44.52
2022-11-13T11:25:21.942Z,44.53
2022-11-13T11:28:44.286Z,46.11
2022-11-13T11:32:11.728Z,45.79
2022-11-13T11:35:30.488Z,45.29
2022-11-13T11:38:49.655Z,46.17
2022-11-13T11:42:18.292Z,45.66
2022-11-13T11:45:39.355Z,45.96
2022-11-13T11:48:39.550Z,45.47
2022-11-13T11:51:56.374Z,45.27
2022-11-13T11:55:21.251Z,46.58
2022-11-13T11:58:40.368Z,46.23
2022-11-13T12:02:14.276Z,46.10
2022-11-13T12:05:42.320Z,46.70
2022-11-13T12:09:12.748Z,47.18
2022-11-13T12:12:25.255Z,46.64
2022-11-13T12:16:03.678Z,46.55
2022-11-13T12:19:13.247Z,46.73
2022-11-13T12:22:40.512Z,45.64
2022-11-13T12:26:20.266Z,45.87
2022-11-13T12:29:46.360Z,46.46
2022-11-13T12:32:49.635Z,45.29
2022-11-13T12:36:01.387Z,44.83
2022-11-13T12:39:37.758Z,45.92
2022-11-13T12:42:59.369Z,49.20
2022-11-13T12:46:10.276Z,45.98
2022-11-13T12:49:35.273Z,47.66
2022-11-13T12:52:35.809Z,45.06
2022-11-13T12:55:46.289Z,45.00
2022-11-13T12:59:03.495Z,45.61
2022-11-13T13:02:17.408Z,46.32
2022-11-13T13:05:46.684Z,46.86
2022-11-13T13:08:58.376Z,48.15
2022-11-13T13:12:33.365Z,47.62
2022-11-13T13:15:52.166Z,48.31
2022-11-13T13:18:53.293Z,48.72
2022-11-13T13:21:54.683Z,50.22
2022-11-13T13:25:14.458Z,49.85
2022-11-13T13:28:22.371Z,50.65
2022-11-13T13:31:51.408Z,49.27
2022-11-13T13:35:00.557Z,50.05
2022-11-13T13:38:29.720Z,50.25
2022-11-13T13:41:32.109Z,50.31
2022-11-13T13:44:47.255Z,50.54
2022-11-13T13:47:50.694Z,51.08
2022-11-13T13:51:02.248Z,51.13
2022-11-13T13:54:08.287Z,50.76
2022-11-13T13:57:16.281Z,51.64
2022-11-13T14:00:27.433Z,51.92
2022-11-13T14:03:30.373Z,51.55
2022-11-13T14:06:37.401Z,51.83
2022-11-13T14:09:46.411Z,49.69
2022-11-13T14:12:48.438Z,51.26
2022-11-13T14:15:56.388Z,51.99
2022-11-13T14:19:13.333Z,52.80
2022-11-13T14:22:25.365Z,53.31
2022-11-13T14:25:29.745Z,51.98
2022-11-13T14:28:38.353Z,52.41
2022-11-13T14:31:38.695Z,53.27
2022-11-13T14:34:46.435Z,54.06
2022-11-13T14:37:49.523Z,53.88
2022-11-13T14:41:02.370Z,54.21
2022-11-13T14:44:03.023Z,54.28
2022-11-13T14:47:34.358Z,54.66
2022-11-13T14:50:37.227Z,54.43
2022-11-13T14:53:56.382Z,54.55
2022-11-13T14:56:56.742Z,53.79
2022-11-13T15:00:03.483Z,54.46
2022-11-13T15:03:14.387Z,55.96
2022-11-13T15:06:29.741Z,56.38
2022-11-13T15:09:38.259Z,55.53
2022-11-13T15:12:45.714Z,55.69
2022-11-13T15:16:00.247Z,55.13
2022-11-13T15:19:11.286Z,56.36
2022-11-13T15:22:26.541Z,56.49
2022-11-13T15:25:35.337Z,56.50
2022-11-13T15:28:35.697Z,55.81
2022-11-13T15:31:46.278Z,56.95
2022-11-13T15:34:46.808Z,57.35
2022-11-13T15:37:53.327Z,56.75
2022-11-13T15:40:53.773Z,56.27
2022-11-13T15:44:03.322Z,55.62
2022-11-13T15:47:03.664Z,55.18
2022-11-13T15:50:14.944Z,55.46
2022-11-13T15:53:26.518Z,55.00
2022-11-13T15:56:26.906Z,54.98
2022-11-13T15:59:34.257Z,54.75
2022-11-13T16:02:36.507Z,54.60
2022-11-13T16:05:43.297Z,53.71
2022-11-13T16:08:45.183Z,53.49
2022-11-13T16:11:52.343Z,53.77
2022-11-13T16:15:07.176Z,56.10
2022-11-13T16:18:29.341Z,55.47
2022-11-13T16:21:37.319Z,55.80
2022-11-13T16:24:37.614Z,56.54
2022-11-13T16:27:44.317Z,55.69
2022-11-13T16:30:45.641Z,56.05
2022-11-13T16:33:53.262Z,55.73
2022-11-13T16:36:54.639Z,55.16
2022-11-13T16:40:01.344Z,55.85
2022-11-13T16:43:02.829Z,55.62
2022-11-13T16:46:09.275Z,55.75
2022-11-13T16:49:09.783Z,56.08
2022-11-13T16:52:16.325Z,55.47
2022-11-13T16:55:23.323Z,56.03
2022-11-13T16:58:30.324Z,57.13
2022-11-13T17:01:38.353Z,56.56
2022-11-13T17:04:39.519Z,57.04
2022-11-13T17:07:46.231Z,57.74
2022-11-13T17:10:47.686Z,57.83
2022-11-13T17:13:55.339Z,58.20
2022-11-13T17:17:01.802Z,56.79
2022-11-13T17:20:02.341Z,56.79
2022-11-13T17:23:09.350Z,56.80
2022-11-13T17:26:11.742Z,58.00
2022-11-13T17:29:18.339Z,57.53
2022-11-13T17:32:18.642Z,56.64
2022-11-13T17:35:25.353Z,55.78
2022-11-13T17:38:26.055Z,55.19
2022-11-13T17:41:33.324Z,54.56
2022-11-13T17:44:33.577Z,56.79
2022-11-13T17:47:42.338Z,56.42
2022-11-13T17:50:42.812Z,55.01
2022-11-13T17:53:50.333Z,55.26
2022-11-13T17:56:50.757Z,56.11
2022-11-13T17:59:58.327Z,55.04
2022-11-13T18:02:58.790Z,55.42
2022-11-13T18:06:05.311Z,55.66
2022-11-13T18:09:12.311Z,55.61
2022-11-13T18:12:12.712Z,55.93
2022-11-13T18:15:20.318Z,55.44
2022-11-13T18:18:28.721Z,55.14
2022-11-13T18:21:32.312Z,54.19
2022-11-13T18:24:39.474Z,55.00
2022-11-13T18:27:47.340Z,55.12
2022-11-13T18:30:50.774Z,54.36
2022-11-13T18:34:04.376Z,53.63
2022-11-13T18:37:05.778Z,52.86
2022-11-13T18:40:12.345Z,53.59
2022-11-13T18:43:20.336Z,53.19
2022-11-13T18:46:22.662Z,54.41
2022-11-13T18:49:29.337Z,54.19
2022-11-13T18:52:29.787Z,55.42
2022-11-13T18:55:36.341Z,54.77
2022-11-13T18:58:44.346Z,55.24
2022-11-13T19:01:44.753Z,55.37
2022-11-13T19:04:52.335Z,54.80
2022-11-13T19:07:52.523Z,54.26
2022-11-13T19:10:59.313Z,54.40
2022-11-13T19:13:59.924Z,58.27
2022-11-13T19:17:06.510Z,55.98
2022-11-13T19:20:08.721Z,53.76
2022-11-13T19:23:15.251Z,54.51
2022-11-13T19:26:22.244Z,56.09
2022-11-13T19:29:22.626Z,56.51
2022-11-13T19:32:29.245Z,55.51
2022-11-13T19:35:29.741Z,53.30
2022-11-13T19:38:36.251Z,53.91
2022-11-13T19:41:37.598Z,52.63
2022-11-13T19:44:44.231Z,54.07
2022-11-13T19:47:52.370Z,55.81
2022-11-13T19:50:53.542Z,56.44
2022-11-13T19:54:01.234Z,57.94
2022-11-13T19:57:01.490Z,58.06
2022-11-13T20:00:08.229Z,58.12
2022-11-13T20:03:09.445Z,58.05
2022-11-13T20:06:16.217Z,58.56
2022-11-13T20:09:16.644Z,59.13
2022-11-13T20:12:24.238Z,57.21
2022-11-13T20:15:25.112Z,58.39
2022-11-13T20:18:32.343Z,57.08
2022-11-13T20:21:32.666Z,57.55
2022-11-13T20:24:39.227Z,56.62
2022-11-13T20:27:47.449Z,55.34
2022-11-13T20:30:47.653Z,54.42
2022-11-13T20:33:56.215Z,54.95
2022-11-13T20:36:56.622Z,53.94
2022-11-13T20:40:05.304Z,53.76
2022-11-13T20:43:12.204Z,53.91
2022-11-13T20:46:21.329Z,55.13
2022-11-13T20:49:23.200Z,56.47
2022-11-13T20:52:31.241Z,57.47
2022-11-13T20:55:38.223Z,59.35
2022-11-13T20:58:39.101Z,59.07
2022-11-13T21:01:46.301Z,60.08
2022-11-13T21:04:47.540Z,58.97
2022-11-13T21:07:54.216Z,58.95
2022-11-13T21:10:54.546Z,58.47
2022-11-13T21:14:03.227Z,58.43
2022-11-13T21:17:17.772Z,58.10
2022-11-13T21:20:18.648Z,57.77
2022-11-13T21:23:25.326Z,58.46
2022-11-13T21:26:33.239Z,59.55
2022-11-13T21:29:40.285Z,59.89
2022-11-13T21:32:41.514Z,59.96
2022-11-13T21:35:48.271Z,60.04
2022-11-13T21:38:51.734Z,60.41
2022-11-13T21:41:58.186Z,60.16
2022-11-13T21:44:59.512Z,59.68
2022-11-13T21:48:08.233Z,59.57
2022-11-13T21:51:15.307Z,59.73
2022-11-13T21:54:16.688Z,58.99
2022-11-13T21:57:24.303Z,60.33
2022-11-13T22:00:25.575Z,58.83
2022-11-13T22:03:32.227Z,58.68
2022-11-13T22:06:40.724Z,59.37
2022-11-13T22:09:48.324Z,58.61
2022-11-13T22:12:48.581Z,59.58
2022-11-13T22:15:55.202Z,59.07
2022-11-13T22:19:11.642Z,58.92
2022-11-13T22:22:11.449Z,58.78
2022-11-13T22:25:19.222Z,58.02
2022-11-13T22:28:20.500Z,58.97
2022-11-13T22:31:47.196Z,61.38
2022-11-13T22:34:48.701Z,61.75
2022-11-13T22:37:55.196Z,63.76
2022-11-13T22:40:55.925Z,65.05
2022-11-13T22:44:08.279Z,66.31
2022-11-13T22:47:09.522Z,68.35
2022-11-13T22:50:16.289Z,67.54
2022-11-13T22:53:16.594Z,68.88
2022-11-13T22:56:28.319Z,68.11
2022-11-13T22:59:35.257Z,68.66
2022-11-13T23:02:47.104Z,68.34
2022-11-13T23:05:55.205Z,68.07
2022-11-13T23:08:56.551Z,66.53
2022-11-13T23:12:03.285Z,65.79
2022-11-13T23:15:10.303Z,65.15
2022-11-13T23:18:16.709Z,65.97
2022-11-13T23:21:19.316Z,64.47
2022-11-13T23:24:26.209Z,64.66
2022-11-13T23:27:33.289Z,63.48
2022-11-13T23:30:34.481Z,63.51
2022-11-13T23:33:42.215Z,63.98
2022-11-13T23:36:43.439Z,63.70
2022-11-13T23:39:51.295Z,63.51
2022-11-13T23:42:55.958Z,63.33
2022-11-13T23:46:03.222Z,63.62
2022-11-13T23:49:10.314Z,63.26
2022-11-13T23:52:10.624Z,61.60
2022-11-13T23:55:18.289Z,61.67
2022-11-13T23:58:22.172Z,61.79
